Time;durP1;ratioP1;P1;durP2;ratioP2;P2;SDS_P1;SDS_P2;PMS_P1;PMS_P2;Temp;Humidity;BMP_temperature;BMP_pressure;BME280_temperature;BME280_humidity;BME280_pressure;Samples;Min_cycle;Max_cycle;Signal;HPM_P1;HPM_P2
2023/10/31 00:00:29;;;;;;;12.20;8.90;;;;;;;9.85;100.00;99577.09;5005147;28;20042;-74
2023/10/31 00:02:54;;;;;;;19.90;9.50;;;;;;;9.85;100.00;99580.69;4999505;28;20034;-74
2023/10/31 00:05:19;;;;;;;17.80;10.00;;;;;;;9.87;100.00;99585.97;5002822;28;20092;-74
2023/10/31 00:07:45;;;;;;;15.93;9.48;;;;;;;9.84;100.00;99580.78;4987182;28;20039;-73
2023/10/31 00:10:10;;;;;;;16.20;9.00;;;;;;;9.83;100.00;99595.38;4988359;28;20046;-74
2023/10/31 00:12:35;;;;;;;11.90;7.88;;;;;;;9.81;100.00;99592.81;4987875;28;20026;-73
2023/10/31 00:15:01;;;;;;;11.15;7.70;;;;;;;9.80;100.00;99601.13;4994257;28;20029;-74
2023/10/31 00:17:26;;;;;;;12.10;6.65;;;;;;;9.78;100.00;99598.50;5007811;28;20125;-73
2023/10/31 00:19:52;;;;;;;8.38;5.35;;;;;;;9.75;100.00;99608.81;5000805;28;20069;-74
2023/10/31 00:22:17;;;;;;;10.10;5.60;;;;;;;9.74;100.00;99615.22;4986867;28;20060;-73
2023/10/31 00:24:43;;;;;;;8.98;5.38;;;;;;;9.71;100.00;99614.50;5019536;28;20176;-73
2023/10/31 00:27:08;;;;;;;9.00;5.22;;;;;;;9.70;100.00;99604.66;4987679;28;20022;-73
2023/10/31 00:29:34;;;;;;;11.02;5.47;;;;;;;9.69;100.00;99604.75;4987801;28;20070;-73
2023/10/31 00:31:59;;;;;;;10.55;5.38;;;;;;;9.67;100.00;99612.19;4991998;28;20038;-74
2023/10/31 00:34:24;;;;;;;9.80;5.32;;;;;;;9.67;100.00;99614.91;4986253;28;20041;-73
2023/10/31 00:36:50;;;;;;;8.65;4.45;;;;;;;9.66;100.00;99611.34;4986736;28;20050;-74
2023/10/31 00:39:15;;;;;;;6.80;3.95;;;;;;;9.65;100.00;99623.22;4988014;28;20043;-74
2023/10/31 00:41:45;;;;;;;7.15;3.72;;;;;;;9.63;100.00;99619.75;4987655;28;20053;-74
2023/10/31 00:44:10;;;;;;;11.77;4.47;;;;;;;9.62;100.00;99618.03;4987751;28;20486;-73
2023/10/31 00:46:36;;;;;;;7.97;3.75;;;;;;;9.61;100.00;99612.75;4986119;28;20112;-73
2023/10/31 00:49:01;;;;;;;6.78;2.97;;;;;;;9.61;100.00;99619.03;4988301;28;20410;-74
2023/10/31 00:51:27;;;;;;;7.50;3.50;;;;;;;9.62;100.00;99631.63;4979476;28;20030;-73
2023/10/31 00:53:52;;;;;;;7.00;2.92;;;;;;;9.62;100.00;99625.31;4986385;28;20419;-74
2023/10/31 00:56:17;;;;;;;6.22;3.15;;;;;;;9.61;100.00;99629.03;4987440;28;20038;-73
2023/10/31 00:58:43;;;;;;;5.32;3.00;;;;;;;9.60;100.00;99635.44;4987781;28;20097;-73
2023/10/31 01:01:08;;;;;;;5.78;2.33;;;;;;;9.58;100.00;99638.31;4988283;28;20057;-73
2023/10/31 01:03:34;;;;;;;5.38;3.22;;;;;;;9.61;100.00;99642.63;4987558;28;20128;-73
2023/10/31 01:05:59;;;;;;;11.75;3.58;;;;;;;9.62;100.00;99636.19;4993623;28;20041;-74
2023/10/31 01:08:24;;;;;;;7.03;2.78;;;;;;;9.62;100.00;99645.19;5009233;28;20033;-74
2023/10/31 01:10:50;;;;;;;4.72;2.67;;;;;;;9.62;100.00;99645.19;4999455;28;20088;-73
2023/10/31 01:13:15;;;;;;;8.30;3.10;;;;;;;9.64;100.00;99655.91;5006649;28;20026;-73
2023/10/31 01:15:41;;;;;;;6.95;3.75;;;;;;;9.62;100.00;99653.34;4990716;28;20050;-74
2023/10/31 01:18:06;;;;;;;10.23;4.70;;;;;;;9.61;100.00;99659.78;4990077;28;20117;-73
2023/10/31 01:20:31;;;;;;;8.75;4.47;;;;;;;9.58;100.00;99653.75;5031851;28;20080;-73
2023/10/31 01:22:57;;;;;;;11.02;5.97;;;;;;;9.58;100.00;99656.44;4990108;28;20042;-74
2023/10/31 01:25:22;;;;;;;14.48;6.00;;;;;;;9.56;100.00;99656.59;4990597;28;20022;-74
2023/10/31 01:27:47;;;;;;;14.27;7.28;;;;;;;9.55;100.00;99662.13;4989611;28;20038;-73
2023/10/31 01:30:13;;;;;;;18.25;8.20;;;;;;;9.56;100.00;99655.72;4991155;28;20045;-73
2023/10/31 01:32:39;;;;;;;15.82;8.45;;;;;;;9.55;100.00;99660.28;4990601;28;20095;-73
2023/10/31 01:35:04;;;;;;;20.08;9.68;;;;;;;9.52;100.00;99649.72;4988983;28;20082;-73
2023/10/31 01:37:30;;;;;;;18.98;10.43;;;;;;;9.54;100.00;99657.72;4989700;28;20049;-74
2023/10/31 01:39:55;;;;;;;26.90;12.40;;;;;;;9.53;100.00;99656.84;4989668;28;20038;-74
2023/10/31 01:42:21;;;;;;;23.95;12.27;;;;;;;9.52;100.00;99655.13;4990914;28;20046;-73
2023/10/31 01:44:46;;;;;;;31.15;13.85;;;;;;;9.53;100.00;99653.28;4989469;28;20145;-73
2023/10/31 01:47:11;;;;;;;24.58;12.35;;;;;;;9.53;100.00;99656.84;4989200;28;20026;-74
2023/10/31 01:49:38;;;;;;;27.92;13.70;;;;;;;9.54;100.00;99658.56;4992070;28;20168;-73
2023/10/31 01:52:04;;;;;;;33.10;16.00;;;;;;;9.52;100.00;99657.00;4991245;28;20036;-73
2023/10/31 01:54:29;;;;;;;27.85;14.23;;;;;;;9.53;100.00;99654.13;4989478;28;20397;-73
2023/10/31 01:56:58;;;;;;;28.38;14.93;;;;;;;9.52;100.00;99652.41;4988643;28;20034;-74
2023/10/31 01:59:25;;;;;;;38.17;18.23;;;;;;;9.52;100.00;99652.41;4972920;28;20113;-73
2023/10/31 02:01:51;;;;;;;36.70;18.08;;;;;;;9.50;100.00;99651.69;4989186;28;20056;-73
2023/10/31 02:04:16;;;;;;;33.08;17.42;;;;;;;9.48;100.00;99658.25;4988783;28;20038;-73
2023/10/31 02:06:41;;;;;;;39.17;18.88;;;;;;;9.45;100.00;99662.94;4994476;28;20157;-73
2023/10/31 02:09:07;;;;;;;39.88;19.23;;;;;;;9.43;100.00;99666.78;4990296;28;20042;-73
2023/10/31 02:11:32;;;;;;;47.10;19.70;;;;;;;9.44;100.00;99674.78;5003484;28;20045;-73
2023/10/31 02:13:59;;;;;;;45.72;20.30;;;;;;;9.45;100.00;99672.94;5010014;28;20038;-73
2023/10/31 02:16:25;;;;;;;43.20;20.58;;;;;;;9.41;100.00;99664.19;5003848;28;20030;-73
2023/10/31 02:18:50;;;;;;;41.42;19.52;;;;;;;9.42;100.00;99674.09;4989514;28;20509;-73
2023/10/31 02:21:19;;;;;;;42.53;20.92;;;;;;;9.43;100.00;99666.78;4999979;28;20038;-73
2023/10/31 02:23:59;;;;;;;43.72;21.38;;;;;;;9.46;100.00;99669.22;4989634;28;20058;-73
2023/10/31 02:26:31;;;;;;;46.85;22.17;;;;;;;9.48;100.00;99659.09;4988625;28;20038;-74
2023/10/31 02:28:57;;;;;;;;;;;;;;;9.51;100.00;99664.25;4991064;28;20153;-73
2023/10/31 02:31:22;;;;;;;44.92;20.08;;;;;;;9.52;100.00;99666.00;5000826;28;20009;-74
2023/10/31 02:33:47;;;;;;;43.63;22.02;;;;;;;9.50;100.00;99659.81;5020743;28;20486;-73
2023/10/31 02:36:13;;;;;;;52.75;22.92;;;;;;;9.54;100.00;99671.28;4994065;28;20035;-73
2023/10/31 02:38:39;;;;;;;51.60;23.90;;;;;;;9.55;100.00;99671.13;4989283;28;20050;-73
2023/10/31 02:41:04;;;;;;;49.85;22.95;;;;;;;9.56;100.00;99670.16;4988154;28;20410;-73
2023/10/31 02:43:30;;;;;;;52.72;23.73;;;;;;;9.58;100.00;99678.16;4990325;28;20054;-73
2023/10/31 02:45:55;;;;;;;49.40;23.23;;;;;;;9.59;100.00;99680.75;4989714;28;20109;-74
2023/10/31 02:48:20;;;;;;;56.28;24.75;;;;;;;9.61;100.00;99675.19;4989416;28;20082;-73
2023/10/31 02:50:46;;;;;;;52.08;24.95;;;;;;;9.61;100.00;99678.78;4990630;28;20042;-73
2023/10/31 02:53:11;;;;;;;49.45;24.95;;;;;;;9.64;100.00;99685.78;4989325;28;20045;-73
2023/10/31 02:55:37;;;;;;;50.47;24.40;;;;;;;9.64;100.00;99685.78;4987469;28;20062;-73
2023/10/31 02:58:02;;;;;;;52.17;24.27;;;;;;;9.65;100.00;99695.63;4989616;28;20038;-73
2023/10/31 03:00:28;;;;;;;54.95;24.45;;;;;;;9.66;100.00;99687.38;4988287;28;20045;-73
2023/10/31 03:02:53;;;;;;;51.63;23.00;;;;;;;9.67;100.00;99690.94;4989135;28;20130;-73
2023/10/31 03:05:18;;;;;;;50.15;23.73;;;;;;;9.69;100.00;99697.94;4993049;28;20062;-73
2023/10/31 03:07:44;;;;;;;52.97;23.50;;;;;;;9.71;100.00;99703.28;4986628;28;20054;-72
2023/10/31 03:10:10;;;;;;;51.85;25.70;;;;;;;9.70;100.00;99702.41;4987708;28;20038;-72
2023/10/31 03:12:35;;;;;;;48.13;23.48;;;;;;;9.70;100.00;99717.84;4989160;28;20040;-73
2023/10/31 03:15:03;;;;;;;57.60;27.63;;;;;;;9.72;100.00;99704.97;4989773;28;20347;-73
2023/10/31 03:17:29;;;;;;;49.08;25.40;;;;;;;9.70;100.00;99712.41;4989309;28;20050;-74
2023/10/31 03:19:55;;;;;;;51.95;25.48;;;;;;;9.70;100.00;99716.00;4973040;28;20033;-74
2023/10/31 03:22:21;;;;;;;56.10;26.15;;;;;;;9.72;100.00;99718.56;5014711;28;20038;-74
2023/10/31 03:24:46;;;;;;;51.78;26.58;;;;;;;9.67;100.00;99716.25;4989128;28;20113;-74
2023/10/31 03:27:11;;;;;;;57.75;26.63;;;;;;;9.68;100.00;99725.25;4988772;28;20052;-74
2023/10/31 03:29:37;;;;;;;54.67;26.27;;;;;;;9.71;100.00;99728.56;4987505;28;20184;-74
2023/10/31 03:32:02;;;;;;;52.92;26.80;;;;;;;9.69;100.00;99727.81;4989104;28;20042;-74
2023/10/31 03:34:28;;;;;;;56.03;27.02;;;;;;;9.71;100.00;99736.72;4971282;28;20552;-74
2023/10/31 03:36:53;;;;;;;60.30;28.00;;;;;;;9.73;100.00;99733.00;4987744;28;20070;-74
2023/10/31 03:39:19;;;;;;;54.25;27.63;;;;;;;9.73;100.00;99736.56;4987737;28;20442;-74
2023/10/31 03:41:46;;;;;;;56.63;26.83;;;;;;;9.73;100.00;99738.44;4987264;28;20037;-74
2023/10/31 03:44:12;;;;;;;53.95;26.75;;;;;;;9.73;100.00;99741.16;4989021;28;20049;-74
2023/10/31 03:46:37;;;;;;;51.53;25.88;;;;;;;9.72;100.00;99748.44;4987489;28;20486;-73
2023/10/31 03:49:03;;;;;;;58.00;28.25;;;;;;;9.72;100.00;99748.44;4998490;28;20117;-74
2023/10/31 03:51:28;;;;;;;59.13;28.88;;;;;;;9.72;100.00;99753.88;4989667;28;20368;-73
2023/10/31 03:53:53;;;;;;;64.53;30.35;;;;;;;9.70;100.00;99754.00;4986773;28;20050;-74
2023/10/31 03:56:19;;;;;;;56.33;27.73;;;;;;;9.70;100.00;99761.31;4988371;28;20089;-74
2023/10/31 03:58:44;;;;;;;60.00;28.42;;;;;;;9.69;100.00;99757.69;4987264;28;20113;-75
2023/10/31 04:01:09;;;;;;;58.72;28.67;;;;;;;9.69;100.00;99759.56;4986753;28;20502;-74
2023/10/31 04:03:35;;;;;;;57.65;28.23;;;;;;;9.70;100.00;99769.44;4988589;28;20042;-74
2023/10/31 04:06:00;;;;;;;59.58;28.05;;;;;;;9.69;100.00;99770.41;4988263;28;20106;-74
2023/10/31 04:08:26;;;;;;;63.85;27.65;;;;;;;9.68;100.00;99771.41;4987733;28;20041;-74
2023/10/31 04:10:51;;;;;;;60.97;27.80;;;;;;;9.68;100.00;99777.72;4988250;28;20026;-73
2023/10/31 04:13:16;;;;;;;63.88;27.90;;;;;;;9.68;100.00;99777.72;4987030;28;20034;-73
2023/10/31 04:15:42;;;;;;;60.17;28.65;;;;;;;9.68;100.00;99777.72;4986452;28;20069;-73
2023/10/31 04:18:07;;;;;;;58.60;27.60;;;;;;;9.68;100.00;99775.00;4988013;28;20030;-73
2023/10/31 04:20:32;;;;;;;58.75;27.85;;;;;;;9.66;100.00;99778.84;4986882;28;20045;-73
2023/10/31 04:22:58;;;;;;;57.53;27.05;;;;;;;9.68;100.00;99787.72;4987901;28;20516;-73
2023/10/31 04:25:24;;;;;;;57.35;26.00;;;;;;;9.68;100.00;99791.28;4988071;28;20031;-73
2023/10/31 04:27:49;;;;;;;59.55;27.23;;;;;;;9.68;100.00;99790.44;4987763;28;20033;-73
2023/10/31 04:30:15;;;;;;;53.47;25.05;;;;;;;9.67;100.00;99796.88;4987149;28;20046;-73
2023/10/31 04:32:40;;;;;;;55.92;26.17;;;;;;;9.68;100.00;99791.28;5019186;28;20410;-72
2023/10/31 04:35:06;;;;;;;58.13;25.80;;;;;;;9.67;100.00;99792.28;4987302;28;20066;-73
2023/10/31 04:37:31;;;;;;;52.92;25.65;;;;;;;9.66;100.00;99798.72;4996893;28;20038;-73
2023/10/31 04:39:57;;;;;;;52.28;25.63;;;;;;;9.61;100.00;99800.97;4996444;28;20505;-73
2023/10/31 04:42:22;;;;;;;49.60;24.27;;;;;;;9.62;100.00;99802.69;4987679;28;20034;-73
2023/10/31 04:44:48;;;;;;;45.47;22.73;;;;;;;9.60;100.00;99801.94;4987851;28;20602;-73
2023/10/31 04:47:13;;;;;;;45.50;22.52;;;;;;;9.56;100.00;99805.94;4986177;28;20141;-73
2023/10/31 04:49:39;;;;;;;47.20;21.98;;;;;;;9.58;100.00;99814.78;4987128;28;20027;-73
2023/10/31 04:52:04;;;;;;;45.40;22.50;;;;;;;9.58;100.00;99822.94;4986319;28;20054;-73
2023/10/31 04:54:30;;;;;;;45.42;23.17;;;;;;;9.60;100.00;99828.22;4991208;28;20514;-73
2023/10/31 04:56:55;;;;;;;46.38;22.42;;;;;;;9.60;100.00;99836.38;5005646;28;20493;-73
2023/10/31 04:59:21;;;;;;;40.38;21.17;;;;;;;9.58;100.00;99820.22;5001488;28;20471;-73
2023/10/31 05:01:50;;;;;;;38.20;20.70;;;;;;;9.58;100.00;99827.50;5006954;28;20041;-73
2023/10/31 05:04:17;;;;;;;38.45;19.80;;;;;;;9.55;100.00;99823.19;5001102;28;20096;-73
2023/10/31 05:06:42;;;;;;;38.53;20.20;;;;;;;9.55;100.00;99828.63;4986603;28;20046;-73
2023/10/31 05:09:07;;;;;;;33.70;18.17;;;;;;;9.53;100.00;99832.47;4987627;28;20042;-73
2023/10/31 05:11:33;;;;;;;36.58;18.00;;;;;;;9.52;100.00;99837.03;4987147;28;20045;-72
2023/10/31 05:13:58;;;;;;;34.33;17.80;;;;;;;9.53;100.00;99829.75;4988466;28;20042;-73
2023/10/31 05:16:24;;;;;;;37.83;18.67;;;;;;;9.51;100.00;99831.72;5000239;28;20120;-73
2023/10/31 05:18:50;;;;;;;37.05;20.13;;;;;;;9.50;100.00;99825.44;5006802;28;20022;-73
2023/10/31 05:21:20;;;;;;;38.80;20.13;;;;;;;9.51;100.00;99832.59;4994256;28;20034;-73
2023/10/31 05:23:46;;;;;;;39.92;19.92;;;;;;;9.49;100.00;99828.28;5006904;28;20120;-73
2023/10/31 05:26:11;;;;;;;34.92;18.20;;;;;;;9.49;100.00;99822.84;5006506;28;20558;-73
2023/10/31 05:28:37;;;;;;;39.20;19.02;;;;;;;9.47;100.00;99816.72;4987440;28;20038;-73
2023/10/31 05:31:03;;;;;;;41.65;21.55;;;;;;;9.47;100.00;99827.56;4996351;28;20048;-73
2023/10/31 05:33:28;;;;;;;35.35;18.83;;;;;;;9.45;100.00;99828.53;5007563;28;20704;-73
2023/10/31 05:35:54;;;;;;;36.75;20.40;;;;;;;9.44;100.00;99829.53;4991801;28;20035;-73
2023/10/31 05:38:19;;;;;;;37.53;19.58;;;;;;;9.44;100.00;99853.09;4985369;28;20089;-73
2023/10/31 05:40:45;;;;;;;37.50;18.90;;;;;;;9.41;100.00;99847.94;4987126;28;20030;-73
2023/10/31 05:43:10;;;;;;;37.67;19.13;;;;;;;9.41;100.00;99861.50;4991338;28;20034;-73
2023/10/31 05:45:35;;;;;;;35.13;19.48;;;;;;;9.41;100.00;99866.94;5005496;28;20037;-73
2023/10/31 05:48:01;;;;;;;33.55;18.52;;;;;;;9.41;100.00;99869.66;4989868;28;20026;-73
2023/10/31 05:50:26;;;;;;;34.45;19.27;;;;;;;9.39;100.00;99875.22;4993055;28;20063;-73
2023/10/31 05:52:52;;;;;;;36.17;18.52;;;;;;;9.40;100.00;99876.06;4994990;28;20539;-73
2023/10/31 05:55:17;;;;;;;37.50;19.25;;;;;;;9.39;100.00;99869.78;5000297;28;20034;-73
2023/10/31 05:57:43;;;;;;;34.35;19.75;;;;;;;9.39;100.00;99872.50;4990429;28;20034;-73
2023/10/31 06:00:08;;;;;;;39.50;20.77;;;;;;;9.41;100.00;99884.06;4990554;28;20074;-73
2023/10/31 06:02:39;;;;;;;36.45;19.95;;;;;;;9.40;100.00;99890.50;4990273;28;20165;-73
2023/10/31 06:05:05;;;;;;;35.67;19.25;;;;;;;9.40;100.00;99889.63;4990234;28;20125;-73
2023/10/31 06:07:31;;;;;;;34.90;19.15;;;;;;;9.38;100.00;99895.22;4989976;28;20046;-73
2023/10/31 06:09:56;;;;;;;28.65;17.88;;;;;;;9.37;100.00;99898.03;4990551;28;20165;-73
2023/10/31 06:12:21;;;;;;;30.50;17.33;;;;;;;9.37;100.00;99906.16;4990258;28;20056;-73
2023/10/31 06:14:47;;;;;;;28.42;17.02;;;;;;;9.35;100.00;99909.03;4990195;28;20398;-73
2023/10/31 06:17:12;;;;;;;28.13;17.50;;;;;;;9.32;100.00;99913.84;4988759;28;20331;-73
2023/10/31 06:19:37;;;;;;;29.27;16.77;;;;;;;9.30;100.00;99918.53;4991646;28;20109;-72
2023/10/31 06:22:03;;;;;;;30.30;17.30;;;;;;;9.29;100.00;99924.97;4996823;28;20042;-72
2023/10/31 06:24:29;;;;;;;29.67;16.35;;;;;;;9.27;100.00;99921.50;4990779;28;20049;-72
2023/10/31 06:26:54;;;;;;;29.90;16.25;;;;;;;9.24;100.00;99933.47;4989562;28;20035;-73
2023/10/31 06:29:20;;;;;;;27.23;16.10;;;;;;;9.22;100.00;99929.16;4990175;28;20046;-73
2023/10/31 06:31:45;;;;;;;26.98;15.13;;;;;;;9.22;100.00;99940.00;4990024;28;20450;-72
2023/10/31 06:34:10;;;;;;;28.85;16.13;;;;;;;9.22;100.00;99935.44;4989413;28;20375;-72
2023/10/31 06:36:36;;;;;;;25.65;15.52;;;;;;;9.21;100.00;99931.00;4988887;28;20042;-72
2023/10/31 06:39:02;;;;;;;29.10;16.30;;;;;;;9.23;100.00;99933.59;5021789;28;20149;-72
2023/10/31 06:41:27;;;;;;;28.00;16.85;;;;;;;9.23;100.00;99936.28;4990297;28;20491;-72
2023/10/31 06:43:52;;;;;;;30.63;17.15;;;;;;;9.26;100.00;99938.78;4988486;28;20056;-72
2023/10/31 06:46:18;;;;;;;29.42;16.80;;;;;;;9.29;100.00;99946.69;4994607;28;20030;-73
2023/10/31 06:48:43;;;;;;;30.77;17.23;;;;;;;9.29;100.00;99949.38;4995895;28;20109;-72
2023/10/31 06:51:09;;;;;;;30.25;17.77;;;;;;;9.31;100.00;99944.69;4995843;28;20208;-72
2023/10/31 06:53:34;;;;;;;33.95;18.73;;;;;;;9.25;100.00;99937.91;5001115;28;20034;-72
2023/10/31 06:55:59;;;;;;;33.65;17.58;;;;;;;9.32;100.00;99952.69;4989565;28;20044;-72
2023/10/31 06:58:25;;;;;;;37.75;19.38;;;;;;;9.36;100.00;99956.03;4989690;28;20142;-72
2023/10/31 07:00:51;;;;;;;32.13;18.40;;;;;;;9.37;100.00;99961.34;4993707;28;20084;-72
2023/10/31 07:03:17;;;;;;;35.53;18.95;;;;;;;9.38;100.00;99965.78;5008382;28;20104;-72
2023/10/31 07:05:42;;;;;;;35.40;19.08;;;;;;;9.37;100.00;99972.22;4998572;28;20109;-72
2023/10/31 07:08:08;;;;;;;34.45;18.88;;;;;;;9.38;100.00;99965.78;5019501;28;20061;-72
2023/10/31 07:10:34;;;;;;;31.00;19.67;;;;;;;9.41;100.00;99968.22;4996038;28;20027;-72
2023/10/31 07:12:59;;;;;;;32.83;18.80;;;;;;;9.40;100.00;99958.38;5003105;28;20034;-73
2023/10/31 07:15:25;;;;;;;32.58;18.23;;;;;;;9.42;100.00;99964.56;4990507;28;20447;-72
2023/10/31 07:17:51;;;;;;;28.67;17.02;;;;;;;9.47;100.00;99979.59;5001762;28;21167;-72
2023/10/31 07:20:17;;;;;;;28.35;17.13;;;;;;;9.46;100.00;99967.84;4992714;28;20522;-72
2023/10/31 07:22:43;;;;;;;31.02;17.67;;;;;;;9.51;100.00;99971.06;5000661;28;20121;-72
2023/10/31 07:25:08;;;;;;;27.63;17.05;;;;;;;9.52;100.00;99971.94;5007214;28;20110;-72
2023/10/31 07:27:34;;;;;;;28.50;16.27;;;;;;;9.52;100.00;99966.50;4993080;28;20046;-72
2023/10/31 07:29:59;;;;;;;27.80;15.68;;;;;;;9.51;100.00;99968.34;4993793;28;20394;-72
2023/10/31 07:32:25;;;;;;;27.10;15.35;;;;;;;9.50;100.00;99972.03;5002553;28;20121;-72
2023/10/31 07:34:51;;;;;;;24.80;15.45;;;;;;;9.48;100.00;99976.75;4988174;28;20443;-72
2023/10/31 07:37:16;;;;;;;25.70;14.82;;;;;;;9.43;100.00;99974.41;4987689;28;20340;-72
2023/10/31 07:39:42;;;;;;;24.45;15.35;;;;;;;9.43;100.00;99988.00;4988507;28;20049;-72
2023/10/31 07:42:07;;;;;;;24.13;15.75;;;;;;;9.44;100.00;99983.41;4988319;28;20044;-72
2023/10/31 07:44:33;;;;;;;24.58;14.93;;;;;;;9.47;100.00;99983.19;5000241;28;20397;-72
2023/10/31 07:46:59;;;;;;;21.25;13.70;;;;;;;9.50;100.00;99979.34;5006680;28;20073;-72
2023/10/31 07:49:24;;;;;;;23.08;14.57;;;;;;;9.53;100.00;99982.66;5006244;28;20037;-73
2023/10/31 07:51:49;;;;;;;22.85;14.27;;;;;;;9.54;100.00;99978.09;4992822;28;20490;-72
2023/10/31 07:54:16;;;;;;;23.40;13.77;;;;;;;9.56;100.00;99982.44;4988833;28;20478;-72
2023/10/31 07:56:41;;;;;;;22.17;15.15;;;;;;;9.60;100.00;99985.72;4987807;28;20056;-72
2023/10/31 07:59:10;;;;;;;27.95;15.38;;;;;;;9.63;100.00;99997.22;4988326;28;20713;-72
2023/10/31 08:01:36;;;;;;;32.60;16.55;;;;;;;9.68;100.00;99994.13;4987965;28;20068;-72
2023/10/31 08:04:02;;;;;;;23.45;16.08;;;;;;;9.76;100.00;99993.50;4987846;28;20483;-72
2023/10/31 08:06:27;;;;;;;27.40;16.55;;;;;;;9.87;100.00;99993.44;4997544;28;20125;-72
2023/10/31 08:08:53;;;;;;;23.73;15.52;;;;;;;10.00;100.00;99990.59;4987396;28;20044;-72
2023/10/31 08:11:18;;;;;;;27.17;16.70;;;;;;;10.10;100.00;99999.69;4991133;28;20248;-73
2023/10/31 08:13:44;;;;;;;26.23;16.38;;;;;;;10.16;100.00;100000.00;5001854;28;20042;-72
2023/10/31 08:16:09;;;;;;;31.52;18.25;;;;;;;10.25;100.00;99998.41;5006369;28;20438;-72
2023/10/31 08:18:35;;;;;;;24.75;16.30;;;;;;;10.30;100.00;100000.75;5004424;28;20030;-72
2023/10/31 08:21:01;;;;;;;27.13;17.67;;;;;;;10.35;100.00;100006.66;4987262;28;20026;-73
2023/10/31 08:23:28;;;;;;;31.60;19.05;;;;;;;10.41;100.00;100009.72;4987554;28;20064;-72
2023/10/31 08:25:54;;;;;;;28.45;17.75;;;;;;;10.52;100.00;100016.09;5006484;28;20021;-72
2023/10/31 08:28:19;;;;;;;30.77;19.63;;;;;;;10.57;100.00;100002.97;5002431;28;20034;-72
2023/10/31 08:30:45;;;;;;;34.30;18.67;;;;;;;10.55;100.00;100010.41;4987158;28;20040;-72
2023/10/31 08:33:11;;;;;;;32.90;19.25;;;;;;;10.56;100.00;100020.28;4987111;28;20478;-72
2023/10/31 08:35:36;;;;;;;34.10;19.50;;;;;;;10.55;100.00;100015.84;4992582;28;20046;-73
2023/10/31 08:38:02;;;;;;;31.77;18.73;;;;;;;10.56;100.00;100017.56;5001379;28;20030;-72
2023/10/31 08:40:27;;;;;;;30.63;17.67;;;;;;;10.53;100.00;100015.97;5007110;28;20042;-72
2023/10/31 08:42:53;;;;;;;33.95;17.63;;;;;;;10.56;100.00;100023.00;4992091;28;20096;-72
2023/10/31 08:45:18;;;;;;;32.08;17.90;;;;;;;10.57;100.00;100028.31;4996017;28;20026;-72
2023/10/31 08:47:44;;;;;;;30.38;17.92;;;;;;;10.58;100.00;100027.31;4989966;28;20038;-72
2023/10/31 08:50:11;;;;;;;32.88;17.58;;;;;;;10.61;100.00;100035.22;4986613;28;20466;-72
2023/10/31 08:52:36;;;;;;;32.33;17.70;;;;;;;10.60;100.00;100044.38;5001085;28;20417;-73
2023/10/31 08:55:02;;;;;;;34.50;18.05;;;;;;;10.61;100.00;100056.97;5006781;28;20029;-72
2023/10/31 08:57:27;;;;;;;30.88;18.23;;;;;;;10.65;100.00;100046.69;4991681;28;20430;-73
2023/10/31 08:59:52;;;;;;;27.95;17.08;;;;;;;10.64;100.00;100061.31;4988129;28;20034;-72
2023/10/31 09:02:18;;;;;;;31.10;17.45;;;;;;;10.62;100.00;100066.00;5006730;28;20037;-73
2023/10/31 09:04:43;;;;;;;34.83;17.88;;;;;;;10.62;100.00;100066.00;5000734;28;20038;-73
2023/10/31 09:07:08;;;;;;;31.92;18.08;;;;;;;10.65;100.00;100068.47;4986084;28;20065;-72
2023/10/31 09:09:34;;;;;;;36.90;17.23;;;;;;;10.66;100.00;100065.59;4986882;28;20113;-73
2023/10/31 09:11:59;;;;;;;34.30;16.88;;;;;;;10.75;100.00;100074.84;4987485;28;20045;-72
2023/10/31 09:14:24;;;;;;;34.70;16.58;;;;;;;10.83;100.00;100085.94;5017788;28;20034;-72
2023/10/31 09:16:50;;;;;;;33.25;16.30;;;;;;;10.92;100.00;100087.00;4992364;28;20060;-72
2023/10/31 09:19:15;;;;;;;29.30;15.95;;;;;;;11.04;100.00;100082.34;5005448;28;20064;-73
2023/10/31 09:21:40;;;;;;;30.63;15.85;;;;;;;11.09;100.00;100089.09;4990599;28;20041;-72
2023/10/31 09:24:07;;;;;;;29.38;16.58;;;;;;;11.12;100.00;100085.28;5006318;28;20034;-72
2023/10/31 09:26:33;;;;;;;30.13;16.70;;;;;;;11.15;100.00;100095.91;5007790;28;20117;-72
2023/10/31 09:28:58;;;;;;;31.42;15.93;;;;;;;11.17;100.00;100099.34;5005960;28;20042;-72
2023/10/31 09:31:24;;;;;;;29.73;15.95;;;;;;;11.24;100.00;100103.28;5010314;28;20060;-72
2023/10/31 09:33:49;;;;;;;35.47;16.05;;;;;;;11.28;100.00;100110.16;4991352;28;20050;-73
2023/10/31 09:36:14;;;;;;;34.30;17.70;;;;;;;11.21;100.00;100117.13;4994189;28;20509;-73
2023/10/31 09:38:40;;;;;;;29.70;16.98;;;;;;;11.17;100.00;100118.41;5001785;28;20059;-73
2023/10/31 09:41:06;;;;;;;27.80;15.80;;;;;;;11.08;100.00;100122.78;5006766;28;20049;-72
2023/10/31 09:43:31;;;;;;;33.45;16.17;;;;;;;10.98;100.00;100122.72;5008931;28;20457;-72
2023/10/31 09:45:57;;;;;;;32.58;17.27;;;;;;;10.97;100.00;100126.44;5007249;28;20112;-72
2023/10/31 09:48:23;;;;;;;31.30;15.73;;;;;;;10.97;100.00;100137.31;5005397;28;20026;-72
2023/10/31 09:50:49;;;;;;;30.48;16.25;;;;;;;10.97;100.00;100134.59;4986320;28;20457;-72
2023/10/31 09:53:18;;;;;;;28.63;15.82;;;;;;;10.97;100.00;100133.72;5000043;28;20026;-72
2023/10/31 09:55:46;;;;;;;33.53;17.10;;;;;;;10.95;100.00;100133.84;5006073;28;20042;-72
2023/10/31 09:58:11;;;;;;;31.50;16.75;;;;;;;10.94;100.00;100126.69;5003553;28;20038;-73
2023/10/31 10:00:40;;;;;;;26.38;15.25;;;;;;;10.92;100.00;100133.25;4990721;28;20036;-72
2023/10/31 10:03:08;;;;;;;27.17;15.40;;;;;;;10.90;100.00;100144.25;5004979;28;20133;-72
2023/10/31 10:05:35;;;;;;;31.75;16.77;;;;;;;10.95;100.00;100138.44;4992527;28;20096;-72
2023/10/31 10:08:00;;;;;;;31.10;15.43;;;;;;;11.01;100.00;100146.09;4990313;28;20065;-72
2023/10/31 10:10:25;;;;;;;29.65;16.85;;;;;;;11.06;100.00;100149.28;4989866;28;20466;-73
2023/10/31 10:12:52;;;;;;;29.27;17.05;;;;;;;11.14;100.00;100157.63;4989571;28;20096;-72
2023/10/31 10:15:17;;;;;;;29.63;15.65;;;;;;;11.25;100.00;100164.91;4996419;28;20556;-73
2023/10/31 10:17:50;;;;;;;29.17;15.23;;;;;;;11.30;100.00;100165.34;5005416;28;20120;-73
2023/10/31 10:20:15;;;;;;;;;;;;;;;11.40;100.00;100165.41;5003166;28;20037;-73
2023/10/31 10:22:44;;;;;;;26.35;13.77;;;;;;;11.41;100.00;100168.00;5007161;28;20336;-72
2023/10/31 10:25:18;;;;;;;27.30;14.85;;;;;;;11.52;100.00;100171.66;5009634;28;20034;-72
2023/10/31 10:27:44;;;;;;;29.50;13.95;;;;;;;11.60;100.00;100163.66;5009005;28;20052;-72
2023/10/31 10:30:13;;;;;;;30.05;15.05;;;;;;;11.61;100.00;100168.13;4996443;28;20023;-72
2023/10/31 10:32:38;;;;;;;24.65;14.20;;;;;;;11.57;100.00;100173.00;4989598;28;20045;-73
2023/10/31 10:35:05;;;;;;;28.95;14.57;;;;;;;11.52;100.00;100186.16;4988873;28;20030;-72
2023/10/31 10:37:30;;;;;;;26.63;14.23;;;;;;;11.46;100.00;100179.34;4993863;28;20034;-72
2023/10/31 10:39:57;;;;;;;27.45;14.57;;;;;;;11.48;100.00;100182.81;4989292;28;20042;-73
2023/10/31 10:42:47;;;;;;;24.63;13.95;;;;;;;11.46;100.00;100189.38;4989080;28;20346;-73
2023/10/31 10:45:15;;;;;;;24.58;14.18;;;;;;;11.47;100.00;100194.72;4989712;28;20066;-72
2023/10/31 10:47:46;;;;;;;25.73;13.85;;;;;;;11.49;100.00;100195.44;4987740;28;20093;-73
2023/10/31 10:50:13;;;;;;;21.55;12.60;;;;;;;11.47;100.00;100196.56;4988655;28;20066;-73
2023/10/31 10:52:44;;;;;;;28.70;13.13;;;;;;;11.49;100.00;100206.34;4987953;28;20038;-72
2023/10/31 10:55:25;;;;;;;22.70;12.35;;;;;;;11.62;100.00;100188.94;4987798;28;20378;-73
2023/10/31 10:57:56;;;;;;;27.70;13.20;;;;;;;11.63;100.00;100201.56;4998472;28;20042;-73
2023/10/31 11:00:24;;;;;;;20.00;11.82;;;;;;;11.61;100.00;100198.09;5007758;28;20103;-73
2023/10/31 11:02:52;;;;;;;21.15;12.63;;;;;;;11.58;100.00;100206.53;5007241;28;20042;-73
2023/10/31 11:05:18;;;;;;;20.77;12.73;;;;;;;11.52;100.00;100204.34;4992553;28;20045;-73
2023/10/31 11:07:45;;;;;;;23.05;12.52;;;;;;;11.50;100.00;100205.34;4987832;28;20150;-72